Delta Virtual Airport Information Service

Cancun International Airport

ICAO: MMUN Country: Mexico
Latitude: 21.0365 Longitude: -86.877
Latest Arrival : UAL1012 (KIAH-MMUN) Latest Departure : AAL1417 (1B) (MMUN-KORD)


WX CaptureLIVE
Data provided by noaa.gov | Fetched at 00:58:25

METAR : MMUN 120445Z 12011KT 7SM FEW015 27/24 A2999 RMK 8/500

TAF : MMUN 112248Z 1200/1306 12012KT P6SM BKN015 TX32/1219Z TN26/1212Z FM120600 12005KT P6SM SCT015 FM121800 12015KT P6SM BKN015 FM130500 12010KT P6SM SCT015


Runway Data for MMUN
Data provided by openaviationdata.com

Runway ID Mag Var Hdg Length Elevation Surface ILS Freq ILS Id ILS Slope
12 2 121° 11497 ft 20 ft Asphalt 108.55 IABA 3
30 2 301° 11497 ft 20 ft Asphalt -- -- --

Cancun International Airport, Mexico
Use only for reference purposes



Not for navigational purposes.